Portada
METAR-TAF:

METAR-TAF

Aeroports :

Grande Prairie, Alberta, Canadà

latitud: 55-11N, longitud: 118-53W, altitud: 666 m

Observació

L'informe es va fer fa 17 minuts, a les 02:00 UTC
Vent 3 kt del Nord-Oest
Temperatura -7°C
Humitat 100%
Pressió 1003 hPa
Visibilitat: 40.2 km
Escasses núvols a una alçada de 10000 ft

METAR: CYQU 250200Z 31003KT 25SM FEW100 M07/M07 A2961 RMK AC3 SLP075

Hora: 19:17 (02:17 UTC)

Pronòstic

L'informe es va fer fa 1 hora i 39 minuts, a les 00:38 UTC
Pronòstic vàlid del 25 a les 01 UTC al 25 a les 13 UTC
Vent 3 kt amb direcció variable
Visibilitat: 10 km
Escasses núvols a una alçada de 8000 ft
Núvols disperses a una alçada de 16000 ft
Probabilitat 30%
l' 25 a les 10 UTC al 25 a les 13 UTC
Visibilitat: 0.8 km
a una alçada de 200 ft
boira gebradora

TAF: CYQU 250038Z 2501/2513 VRB03KT P6SM FEW080 SCT160 PROB30 2510/2513 1/2SM FZFG VV002 RMK NXT FCST BY 250700Z

Observacions i pronòstics meteorològics de més de 4000 aeroports (METAR i TAF).

Les estacions disponibles són els punts grocs i vermells al mapa.

Posi el ratolí al punt desitjat per veure el nom de l'estació.

Feu clic per veure les observacions i els pronòstics meteorològics.

Per canviar el mapa: feu clic els botons verds amb una creu de color negre per apropar; al botó verd amb un guió per allunyar la imatge; o en les fletxes verdes per a mapes adjacents.


METAR-TAF: